sensor_id;sensor_type;location;lat;lon;timestamp;P1;durP1;ratioP1;P2;durP2;ratioP2
54464;SDS011;40374;49.480;20.016;2023-07-22T00:00:32;24.63;;;14.82;;
54464;SDS011;40374;49.480;20.016;2023-07-22T00:03:59;25.50;;;14.48;;
54464;SDS011;40374;49.480;20.016;2023-07-22T00:07:25;21.92;;;13.82;;
54464;SDS011;40374;49.480;20.016;2023-07-22T00:10:51;23.40;;;14.02;;
54464;SDS011;40374;49.480;20.016;2023-07-22T00:14:17;19.25;;;12.60;;
54464;SDS011;40374;49.480;20.016;2023-07-22T00:17:28;24.92;;;12.93;;
54464;SDS011;40374;49.480;20.016;2023-07-22T00:20:00;21.35;;;12.00;;
54464;SDS011;40374;49.480;20.016;2023-07-22T00:22:41;15.73;;;11.55;;
54464;SDS011;40374;49.480;20.016;2023-07-22T00:25:22;15.73;;;10.77;;
54464;SDS011;40374;49.480;20.016;2023-07-22T00:28:48;13.98;;;10.32;;
54464;SDS011;40374;49.480;20.016;2023-07-22T00:32:08;16.17;;;9.93;;
54464;SDS011;40374;49.480;20.016;2023-07-22T00:35:35;15.73;;;9.65;;
54464;SDS011;40374;49.480;20.016;2023-07-22T00:38:02;15.88;;;10.98;;
54464;SDS011;40374;49.480;20.016;2023-07-22T00:40:48;20.42;;;11.65;;
54464;SDS011;40374;49.480;20.016;2023-07-22T00:44:14;18.02;;;11.27;;
54464;SDS011;40374;49.480;20.016;2023-07-22T00:47:40;19.33;;;11.38;;
54464;SDS011;40374;49.480;20.016;2023-07-22T00:51:07;20.13;;;10.98;;
54464;SDS011;40374;49.480;20.016;2023-07-22T00:53:58;16.08;;;11.45;;
54464;SDS011;40374;49.480;20.016;2023-07-22T00:57:27;16.77;;;12.57;;
54464;SDS011;40374;49.480;20.016;2023-07-22T01:00:53;20.08;;;14.13;;
54464;SDS011;40374;49.480;20.016;2023-07-22T01:04:19;17.63;;;13.02;;
54464;SDS011;40374;49.480;20.016;2023-07-22T01:07:46;17.27;;;14.30;;
54464;SDS011;40374;49.480;20.016;2023-07-22T01:11:13;19.20;;;13.97;;
54464;SDS011;40374;49.480;20.016;2023-07-22T01:14:41;21.02;;;14.13;;
54464;SDS011;40374;49.480;20.016;2023-07-22T01:18:08;21.10;;;14.32;;
54464;SDS011;40374;49.480;20.016;2023-07-22T01:21:35;18.88;;;13.85;;
54464;SDS011;40374;49.480;20.016;2023-07-22T01:24:08;18.85;;;13.00;;
54464;SDS011;40374;49.480;20.016;2023-07-22T01:26:36;18.48;;;13.40;;
54464;SDS011;40374;49.480;20.016;2023-07-22T01:29:05;21.88;;;16.15;;
54464;SDS011;40374;49.480;20.016;2023-07-22T01:31:35;24.73;;;15.60;;
54464;SDS011;40374;49.480;20.016;2023-07-22T01:35:01;19.75;;;12.32;;
54464;SDS011;40374;49.480;20.016;2023-07-22T01:38:28;13.25;;;10.93;;
54464;SDS011;40374;49.480;20.016;2023-07-22T01:41:54;14.23;;;11.20;;
54464;SDS011;40374;49.480;20.016;2023-07-22T01:44:26;18.60;;;12.57;;
54464;SDS011;40374;49.480;20.016;2023-07-22T01:47:52;17.80;;;12.60;;
54464;SDS011;40374;49.480;20.016;2023-07-22T01:51:18;20.67;;;12.85;;
54464;SDS011;40374;49.480;20.016;2023-07-22T01:54:44;18.30;;;12.27;;
54464;SDS011;40374;49.480;20.016;2023-07-22T01:58:11;19.50;;;13.75;;
54464;SDS011;40374;49.480;20.016;2023-07-22T02:01:37;23.88;;;14.95;;
54464;SDS011;40374;49.480;20.016;2023-07-22T02:05:04;24.15;;;15.38;;
54464;SDS011;40374;49.480;20.016;2023-07-22T02:08:30;26.13;;;16.20;;
54464;SDS011;40374;49.480;20.016;2023-07-22T02:11:56;24.98;;;16.55;;
54464;SDS011;40374;49.480;20.016;2023-07-22T02:15:22;22.25;;;16.20;;
54464;SDS011;40374;49.480;20.016;2023-07-22T02:18:48;26.65;;;16.98;;
54464;SDS011;40374;49.480;20.016;2023-07-22T02:22:14;26.17;;;16.00;;
54464;SDS011;40374;49.480;20.016;2023-07-22T02:25:41;25.70;;;15.95;;
54464;SDS011;40374;49.480;20.016;2023-07-22T02:29:07;28.02;;;17.48;;
54464;SDS011;40374;49.480;20.016;2023-07-22T02:32:38;30.98;;;19.00;;
54464;SDS011;40374;49.480;20.016;2023-07-22T02:36:04;29.20;;;19.55;;
54464;SDS011;40374;49.480;20.016;2023-07-22T02:39:31;28.55;;;18.88;;
54464;SDS011;40374;49.480;20.016;2023-07-22T02:43:00;34.35;;;16.85;;
54464;SDS011;40374;49.480;20.016;2023-07-22T02:46:25;24.02;;;16.33;;
54464;SDS011;40374;49.480;20.016;2023-07-22T02:48:57;32.97;;;16.30;;
54464;SDS011;40374;49.480;20.016;2023-07-22T02:51:29;28.17;;;15.75;;
54464;SDS011;40374;49.480;20.016;2023-07-22T02:53:59;26.75;;;16.67;;
54464;SDS011;40374;49.480;20.016;2023-07-22T02:57:51;23.33;;;15.95;;
54464;SDS011;40374;49.480;20.016;2023-07-22T03:01:17;22.30;;;14.40;;
54464;SDS011;40374;49.480;20.016;2023-07-22T03:04:43;21.73;;;14.13;;
54464;SDS011;40374;49.480;20.016;2023-07-22T03:08:09;27.77;;;14.18;;
54464;SDS011;40374;49.480;20.016;2023-07-22T03:11:35;22.15;;;13.50;;
54464;SDS011;40374;49.480;20.016;2023-07-22T03:15:02;18.17;;;12.30;;
54464;SDS011;40374;49.480;20.016;2023-07-22T03:18:32;18.98;;;13.18;;
54464;SDS011;40374;49.480;20.016;2023-07-22T03:21:58;16.48;;;10.27;;
54464;SDS011;40374;49.480;20.016;2023-07-22T03:25:24;13.90;;;10.20;;
54464;SDS011;40374;49.480;20.016;2023-07-22T03:28:50;14.77;;;10.63;;
54464;SDS011;40374;49.480;20.016;2023-07-22T03:32:16;14.38;;;10.70;;
54464;SDS011;40374;49.480;20.016;2023-07-22T03:35:42;13.70;;;10.57;;
54464;SDS011;40374;49.480;20.016;2023-07-22T03:38:48;16.80;;;11.10;;
54464;SDS011;40374;49.480;20.016;2023-07-22T03:42:14;15.13;;;10.15;;
54464;SDS011;40374;49.480;20.016;2023-07-22T03:44:58;15.27;;;10.43;;
54464;SDS011;40374;49.480;20.016;2023-07-22T03:47:33;11.23;;;7.95;;
54464;SDS011;40374;49.480;20.016;2023-07-22T03:50:49;15.23;;;8.60;;
54464;SDS011;40374;49.480;20.016;2023-07-22T03:54:15;12.73;;;8.85;;
54464;SDS011;40374;49.480;20.016;2023-07-22T03:57:33;17.15;;;8.55;;
54464;SDS011;40374;49.480;20.016;2023-07-22T04:00:12;9.82;;;7.03;;
54464;SDS011;40374;49.480;20.016;2023-07-22T04:03:08;9.95;;;7.82;;
54464;SDS011;40374;49.480;20.016;2023-07-22T04:05:36;8.88;;;7.22;;
54464;SDS011;40374;49.480;20.016;2023-07-22T04:08:57;9.43;;;7.30;;
54464;SDS011;40374;49.480;20.016;2023-07-22T04:11:27;12.88;;;7.20;;
54464;SDS011;40374;49.480;20.016;2023-07-22T04:14:32;10.40;;;6.68;;
54464;SDS011;40374;49.480;20.016;2023-07-22T04:17:10;8.85;;;6.22;;
54464;SDS011;40374;49.480;20.016;2023-07-22T04:19:43;14.85;;;6.88;;
54464;SDS011;40374;49.480;20.016;2023-07-22T04:22:36;10.43;;;6.25;;
54464;SDS011;40374;49.480;20.016;2023-07-22T04:25:04;6.50;;;5.70;;
54464;SDS011;40374;49.480;20.016;2023-07-22T04:28:34;7.78;;;6.03;;
54464;SDS011;40374;49.480;20.016;2023-07-22T04:31:05;8.32;;;5.95;;
54464;SDS011;40374;49.480;20.016;2023-07-22T04:34:31;9.70;;;5.35;;
54464;SDS011;40374;49.480;20.016;2023-07-22T04:38:01;11.18;;;4.57;;
54464;SDS011;40374;49.480;20.016;2023-07-22T04:41:27;8.63;;;5.20;;
54464;SDS011;40374;49.480;20.016;2023-07-22T04:44:54;4.70;;;3.65;;
54464;SDS011;40374;49.480;20.016;2023-07-22T04:48:20;5.47;;;3.63;;
54464;SDS011;40374;49.480;20.016;2023-07-22T04:51:47;4.97;;;4.05;;
54464;SDS011;40374;49.480;20.016;2023-07-22T04:55:14;5.72;;;3.75;;
54464;SDS011;40374;49.480;20.016;2023-07-22T04:58:40;5.10;;;3.00;;
54464;SDS011;40374;49.480;20.016;2023-07-22T05:01:08;4.45;;;2.95;;
54464;SDS011;40374;49.480;20.016;2023-07-22T05:04:34;4.70;;;3.25;;
54464;SDS011;40374;49.480;20.016;2023-07-22T05:07:32;5.20;;;3.10;;
54464;SDS011;40374;49.480;20.016;2023-07-22T05:10:27;4.20;;;3.15;;
54464;SDS011;40374;49.480;20.016;2023-07-22T05:12:55;7.88;;;3.80;;
54464;SDS011;40374;49.480;20.016;2023-07-22T05:15:32;3.95;;;3.08;;
54464;SDS011;40374;49.480;20.016;2023-07-22T05:18:02;4.97;;;3.22;;
54464;SDS011;40374;49.480;20.016;2023-07-22T05:21:28;6.15;;;3.15;;
54464;SDS011;40374;49.480;20.016;2023-07-22T05:24:54;3.85;;;2.90;;
54464;SDS011;40374;49.480;20.016;2023-07-22T05:28:08;5.45;;;3.25;;
54464;SDS011;40374;49.480;20.016;2023-07-22T05:31:34;6.03;;;3.20;;
54464;SDS011;40374;49.480;20.016;2023-07-22T05:34:23;3.65;;;3.10;;
54464;SDS011;40374;49.480;20.016;2023-07-22T05:37:50;3.95;;;3.30;;
54464;SDS011;40374;49.480;20.016;2023-07-22T05:41:16;4.32;;;3.10;;
54464;SDS011;40374;49.480;20.016;2023-07-22T05:44:42;3.90;;;2.90;;
54464;SDS011;40374;49.480;20.016;2023-07-22T05:48:08;5.93;;;3.35;;
54464;SDS011;40374;49.480;20.016;2023-07-22T05:51:34;4.40;;;2.65;;
54464;SDS011;40374;49.480;20.016;2023-07-22T05:55:00;5.60;;;2.80;;
54464;SDS011;40374;49.480;20.016;2023-07-22T05:58:26;3.00;;;2.65;;
54464;SDS011;40374;49.480;20.016;2023-07-22T06:01:52;5.15;;;2.95;;
54464;SDS011;40374;49.480;20.016;2023-07-22T06:05:21;2.92;;;2.60;;
54464;SDS011;40374;49.480;20.016;2023-07-22T06:08:50;5.80;;;3.55;;
54464;SDS011;40374;49.480;20.016;2023-07-22T06:12:16;3.97;;;2.83;;
54464;SDS011;40374;49.480;20.016;2023-07-22T06:15:42;3.10;;;2.80;;
54464;SDS011;40374;49.480;20.016;2023-07-22T06:19:08;4.60;;;3.88;;
54464;SDS011;40374;49.480;20.016;2023-07-22T06:22:34;6.43;;;3.35;;
54464;SDS011;40374;49.480;20.016;2023-07-22T06:26:01;5.38;;;3.25;;
54464;SDS011;40374;49.480;20.016;2023-07-22T06:29:27;6.18;;;3.67;;
54464;SDS011;40374;49.480;20.016;2023-07-22T06:32:54;10.02;;;3.40;;
54464;SDS011;40374;49.480;20.016;2023-07-22T06:36:20;5.13;;;3.50;;
54464;SDS011;40374;49.480;20.016;2023-07-22T06:39:46;4.30;;;3.50;;
54464;SDS011;40374;49.480;20.016;2023-07-22T06:43:12;4.47;;;3.42;;
54464;SDS011;40374;49.480;20.016;2023-07-22T06:46:38;3.80;;;3.15;;
54464;SDS011;40374;49.480;20.016;2023-07-22T06:50:05;6.30;;;3.45;;
54464;SDS011;40374;49.480;20.016;2023-07-22T06:53:32;4.47;;;3.80;;
54464;SDS011;40374;49.480;20.016;2023-07-22T06:56:58;6.22;;;3.60;;
54464;SDS011;40374;49.480;20.016;2023-07-22T07:00:24;3.40;;;3.10;;
54464;SDS011;40374;49.480;20.016;2023-07-22T07:03:50;4.93;;;3.90;;
54464;SDS011;40374;49.480;20.016;2023-07-22T07:07:16;5.00;;;3.25;;
54464;SDS011;40374;49.480;20.016;2023-07-22T07:10:43;7.82;;;3.80;;
54464;SDS011;40374;49.480;20.016;2023-07-22T07:14:09;4.80;;;3.05;;
54464;SDS011;40374;49.480;20.016;2023-07-22T07:17:36;4.80;;;3.40;;
54464;SDS011;40374;49.480;20.016;2023-07-22T07:21:02;4.00;;;3.25;;
54464;SDS011;40374;49.480;20.016;2023-07-22T07:24:28;5.50;;;3.50;;
54464;SDS011;40374;49.480;20.016;2023-07-22T07:27:54;4.25;;;3.47;;
54464;SDS011;40374;49.480;20.016;2023-07-22T07:31:20;4.18;;;3.65;;
54464;SDS011;40374;49.480;20.016;2023-07-22T07:34:46;6.10;;;3.75;;
54464;SDS011;40374;49.480;20.016;2023-07-22T07:38:13;4.60;;;3.88;;
54464;SDS011;40374;49.480;20.016;2023-07-22T07:41:39;6.47;;;3.97;;
54464;SDS011;40374;49.480;20.016;2023-07-22T07:45:05;4.68;;;3.63;;
54464;SDS011;40374;49.480;20.016;2023-07-22T07:48:45;4.05;;;3.50;;
54464;SDS011;40374;49.480;20.016;2023-07-22T07:52:11;4.72;;;3.25;;
54464;SDS011;40374;49.480;20.016;2023-07-22T07:55:37;4.35;;;3.08;;
54464;SDS011;40374;49.480;20.016;2023-07-22T07:59:03;4.07;;;3.33;;
54464;SDS011;40374;49.480;20.016;2023-07-22T08:02:30;3.90;;;3.10;;
54464;SDS011;40374;49.480;20.016;2023-07-22T08:05:56;5.60;;;3.20;;
54464;SDS011;40374;49.480;20.016;2023-07-22T08:09:22;3.78;;;3.05;;
54464;SDS011;40374;49.480;20.016;2023-07-22T08:12:48;10.48;;;4.18;;
54464;SDS011;40374;49.480;20.016;2023-07-22T08:16:14;7.85;;;3.97;;
54464;SDS011;40374;49.480;20.016;2023-07-22T08:19:40;4.30;;;3.10;;
54464;SDS011;40374;49.480;20.016;2023-07-22T08:23:06;7.03;;;3.35;;
54464;SDS011;40374;49.480;20.016;2023-07-22T08:26:33;5.63;;;2.95;;
54464;SDS011;40374;49.480;20.016;2023-07-22T08:29:58;6.35;;;3.08;;
54464;SDS011;40374;49.480;20.016;2023-07-22T08:33:25;8.50;;;3.03;;
54464;SDS011;40374;49.480;20.016;2023-07-22T08:36:53;5.13;;;3.00;;
54464;SDS011;40374;49.480;20.016;2023-07-22T08:40:21;3.45;;;2.65;;
54464;SDS011;40374;49.480;20.016;2023-07-22T08:43:49;5.10;;;2.83;;
54464;SDS011;40374;49.480;20.016;2023-07-22T08:47:20;7.43;;;3.00;;
54464;SDS011;40374;49.480;20.016;2023-07-22T08:51:13;3.92;;;2.78;;
54464;SDS011;40374;49.480;20.016;2023-07-22T08:54:41;3.78;;;2.85;;
54464;SDS011;40374;49.480;20.016;2023-07-22T08:58:09;5.60;;;2.95;;
54464;SDS011;40374;49.480;20.016;2023-07-22T09:01:37;6.22;;;3.20;;
54464;SDS011;40374;49.480;20.016;2023-07-22T09:05:04;6.18;;;3.10;;
54464;SDS011;40374;49.480;20.016;2023-07-22T09:08:33;5.63;;;3.28;;
54464;SDS011;40374;49.480;20.016;2023-07-22T09:11:59;5.83;;;3.03;;
54464;SDS011;40374;49.480;20.016;2023-07-22T09:15:27;4.63;;;3.30;;
54464;SDS011;40374;49.480;20.016;2023-07-22T09:18:58;6.55;;;3.78;;
54464;SDS011;40374;49.480;20.016;2023-07-22T09:22:25;6.40;;;3.85;;
54464;SDS011;40374;49.480;20.016;2023-07-22T09:26:10;4.38;;;3.72;;
54464;SDS011;40374;49.480;20.016;2023-07-22T09:29:37;5.65;;;3.75;;
54464;SDS011;40374;49.480;20.016;2023-07-22T09:42:06;6.80;;;4.65;;
54464;SDS011;40374;49.480;20.016;2023-07-22T09:44:38;6.53;;;4.43;;
54464;SDS011;40374;49.480;20.016;2023-07-22T09:47:10;6.35;;;4.20;;
54464;SDS011;40374;49.480;20.016;2023-07-22T09:49:40;13.18;;;4.22;;
54464;SDS011;40374;49.480;20.016;2023-07-22T09:52:11;5.70;;;3.97;;
54464;SDS011;40374;49.480;20.016;2023-07-22T09:54:47;6.18;;;3.45;;
54464;SDS011;40374;49.480;20.016;2023-07-22T09:57:16;7.30;;;3.83;;
54464;SDS011;40374;49.480;20.016;2023-07-22T09:59:44;4.38;;;3.85;;
54464;SDS011;40374;49.480;20.016;2023-07-22T10:02:13;5.03;;;3.85;;
54464;SDS011;40374;49.480;20.016;2023-07-22T10:04:43;4.07;;;3.17;;
54464;SDS011;40374;49.480;20.016;2023-07-22T10:07:10;5.53;;;3.78;;
54464;SDS011;40374;49.480;20.016;2023-07-22T10:09:39;4.95;;;3.33;;
54464;SDS011;40374;49.480;20.016;2023-07-22T10:12:07;4.68;;;3.53;;
54464;SDS011;40374;49.480;20.016;2023-07-22T10:14:34;3.92;;;3.15;;
54464;SDS011;40374;49.480;20.016;2023-07-22T10:17:04;5.20;;;3.22;;
54464;SDS011;40374;49.480;20.016;2023-07-22T10:19:33;4.45;;;3.05;;
54464;SDS011;40374;49.480;20.016;2023-07-22T10:22:01;6.43;;;3.53;;
54464;SDS011;40374;49.480;20.016;2023-07-22T10:24:29;4.30;;;3.28;;
54464;SDS011;40374;49.480;20.016;2023-07-22T10:26:57;7.28;;;3.78;;
54464;SDS011;40374;49.480;20.016;2023-07-22T10:29:25;10.23;;;3.35;;
54464;SDS011;40374;49.480;20.016;2023-07-22T10:50:37;5.10;;;2.30;;
54464;SDS011;40374;49.480;20.016;2023-07-22T10:53:10;8.32;;;3.90;;
54464;SDS011;40374;49.480;20.016;2023-07-22T10:59:17;5.15;;;2.75;;
54464;SDS011;40374;49.480;20.016;2023-07-22T11:01:54;4.75;;;2.20;;
54464;SDS011;40374;49.480;20.016;2023-07-22T11:16:42;3.90;;;2.20;;
54464;SDS011;40374;49.480;20.016;2023-07-22T11:19:12;2.67;;;1.80;;
54464;SDS011;40374;49.480;20.016;2023-07-22T11:21:45;2.10;;;1.70;;
54464;SDS011;40374;49.480;20.016;2023-07-22T11:24:18;3.40;;;1.95;;
54464;SDS011;40374;49.480;20.016;2023-07-22T11:29:43;4.18;;;2.17;;
54464;SDS011;40374;49.480;20.016;2023-07-22T11:32:14;5.93;;;1.92;;
54464;SDS011;40374;49.480;20.016;2023-07-22T11:34:46;2.75;;;1.83;;
54464;SDS011;40374;49.480;20.016;2023-07-22T11:37:14;6.93;;;2.30;;
54464;SDS011;40374;49.480;20.016;2023-07-22T11:39:41;3.05;;;2.30;;
54464;SDS011;40374;49.480;20.016;2023-07-22T11:42:11;4.65;;;2.30;;
54464;SDS011;40374;49.480;20.016;2023-07-22T11:44:39;5.90;;;2.10;;
54464;SDS011;40374;49.480;20.016;2023-07-22T11:47:07;5.57;;;2.00;;
54464;SDS011;40374;49.480;20.016;2023-07-22T11:49:38;2.13;;;1.92;;
54464;SDS011;40374;49.480;20.016;2023-07-22T11:52:11;4.00;;;2.08;;
54464;SDS011;40374;49.480;20.016;2023-07-22T11:54:44;2.85;;;1.90;;
54464;SDS011;40374;49.480;20.016;2023-07-22T11:57:16;2.17;;;1.98;;
54464;SDS011;40374;49.480;20.016;2023-07-22T12:05:05;6.30;;;2.70;;
54464;SDS011;40374;49.480;20.016;2023-07-22T12:07:34;2.28;;;1.85;;
54464;SDS011;40374;49.480;20.016;2023-07-22T12:10:04;2.25;;;2.00;;
54464;SDS011;40374;49.480;20.016;2023-07-22T12:12:37;2.35;;;2.13;;
54464;SDS011;40374;49.480;20.016;2023-07-22T13:32:18;2.70;;;2.50;;
54464;SDS011;40374;49.480;20.016;2023-07-22T13:34:45;4.25;;;2.97;;
54464;SDS011;40374;49.480;20.016;2023-07-22T13:43:13;6.40;;;3.25;;
54464;SDS011;40374;49.480;20.016;2023-07-22T13:45:40;8.57;;;3.08;;
54464;SDS011;40374;49.480;20.016;2023-07-22T13:48:08;7.88;;;3.45;;
54464;SDS011;40374;49.480;20.016;2023-07-22T13:50:35;5.70;;;3.13;;
54464;SDS011;40374;49.480;20.016;2023-07-22T13:53:05;6.53;;;4.07;;
54464;SDS011;40374;49.480;20.016;2023-07-22T13:55:33;7.90;;;3.63;;
54464;SDS011;40374;49.480;20.016;2023-07-22T13:58:00;8.93;;;4.38;;
54464;SDS011;40374;49.480;20.016;2023-07-22T14:00:28;5.85;;;2.97;;
54464;SDS011;40374;49.480;20.016;2023-07-22T14:02:55;6.18;;;3.30;;
54464;SDS011;40374;49.480;20.016;2023-07-22T14:05:25;6.45;;;2.90;;
54464;SDS011;40374;49.480;20.016;2023-07-22T14:07:52;3.50;;;3.13;;
54464;SDS011;40374;49.480;20.016;2023-07-22T14:10:20;3.80;;;3.40;;
54464;SDS011;40374;49.480;20.016;2023-07-22T14:12:47;5.93;;;3.42;;
54464;SDS011;40374;49.480;20.016;2023-07-22T14:15:15;5.45;;;2.78;;
54464;SDS011;40374;49.480;20.016;2023-07-22T14:17:42;7.45;;;3.20;;
54464;SDS011;40374;49.480;20.016;2023-07-22T14:20:13;3.55;;;2.47;;
54464;SDS011;40374;49.480;20.016;2023-07-22T14:22:41;3.75;;;2.70;;
54464;SDS011;40374;49.480;20.016;2023-07-22T14:25:09;4.80;;;2.53;;
54464;SDS011;40374;49.480;20.016;2023-07-22T14:27:38;5.07;;;2.25;;
54464;SDS011;40374;49.480;20.016;2023-07-22T14:30:07;4.03;;;2.67;;
54464;SDS011;40374;49.480;20.016;2023-07-22T14:32:35;2.50;;;2.22;;
54464;SDS011;40374;49.480;20.016;2023-07-22T14:35:03;3.50;;;2.65;;
54464;SDS011;40374;49.480;20.016;2023-07-22T14:37:31;8.50;;;2.72;;
54464;SDS011;40374;49.480;20.016;2023-07-22T14:40:00;6.80;;;2.60;;
54464;SDS011;40374;49.480;20.016;2023-07-22T14:42:27;3.70;;;2.10;;
54464;SDS011;40374;49.480;20.016;2023-07-22T14:44:55;3.70;;;2.28;;
54464;SDS011;40374;49.480;20.016;2023-07-22T14:47:22;3.08;;;2.20;;
54464;SDS011;40374;49.480;20.016;2023-07-22T14:49:50;7.28;;;2.22;;
54464;SDS011;40374;49.480;20.016;2023-07-22T18:28:42;16.38;;;7.97;;
54464;SDS011;40374;49.480;20.016;2023-07-22T18:31:09;15.63;;;8.73;;
54464;SDS011;40374;49.480;20.016;2023-07-22T18:33:37;17.55;;;10.18;;
54464;SDS011;40374;49.480;20.016;2023-07-22T18:36:05;31.67;;;15.85;;
54464;SDS011;40374;49.480;20.016;2023-07-22T18:38:32;35.17;;;13.02;;
54464;SDS011;40374;49.480;20.016;2023-07-22T18:41:01;27.65;;;12.88;;
54464;SDS011;40374;49.480;20.016;2023-07-22T18:43:28;21.60;;;11.95;;
54464;SDS011;40374;49.480;20.016;2023-07-22T18:45:56;20.83;;;11.13;;
54464;SDS011;40374;49.480;20.016;2023-07-22T18:48:23;15.85;;;9.40;;
54464;SDS011;40374;49.480;20.016;2023-07-22T18:50:54;27.55;;;13.07;;
54464;SDS011;40374;49.480;20.016;2023-07-22T18:53:24;30.27;;;15.20;;
54464;SDS011;40374;49.480;20.016;2023-07-22T18:55:52;35.45;;;15.05;;
54464;SDS011;40374;49.480;20.016;2023-07-22T18:58:19;26.70;;;14.52;;
54464;SDS011;40374;49.480;20.016;2023-07-22T19:00:47;29.50;;;14.70;;
54464;SDS011;40374;49.480;20.016;2023-07-22T19:03:15;31.45;;;16.73;;
54464;SDS011;40374;49.480;20.016;2023-07-22T19:05:43;35.30;;;16.58;;
54464;SDS011;40374;49.480;20.016;2023-07-22T19:08:10;33.03;;;16.85;;
54464;SDS011;40374;49.480;20.016;2023-07-22T19:10:44;23.13;;;10.60;;
54464;SDS011;40374;49.480;20.016;2023-07-22T19:13:12;17.48;;;7.35;;
54464;SDS011;40374;49.480;20.016;2023-07-22T19:15:41;16.25;;;7.82;;
54464;SDS011;40374;49.480;20.016;2023-07-22T19:18:08;20.33;;;9.77;;
54464;SDS011;40374;49.480;20.016;2023-07-22T19:20:36;15.48;;;8.40;;
54464;SDS011;40374;49.480;20.016;2023-07-22T19:23:05;15.35;;;9.73;;
54464;SDS011;40374;49.480;20.016;2023-07-22T19:25:38;20.40;;;11.15;;
54464;SDS011;40374;49.480;20.016;2023-07-22T19:28:05;38.92;;;19.13;;
54464;SDS011;40374;49.480;20.016;2023-07-22T19:30:36;66.30;;;28.08;;
54464;SDS011;40374;49.480;20.016;2023-07-22T19:33:04;61.15;;;27.58;;
54464;SDS011;40374;49.480;20.016;2023-07-22T19:35:35;50.08;;;19.92;;
54464;SDS011;40374;49.480;20.016;2023-07-22T19:38:02;94.07;;;30.95;;
54464;SDS011;40374;49.480;20.016;2023-07-22T19:40:30;45.13;;;20.58;;
54464;SDS011;40374;49.480;20.016;2023-07-22T19:42:57;68.75;;;27.98;;
54464;SDS011;40374;49.480;20.016;2023-07-22T19:45:25;40.20;;;18.63;;
54464;SDS011;40374;49.480;20.016;2023-07-22T19:47:52;39.50;;;19.58;;
54464;SDS011;40374;49.480;20.016;2023-07-22T19:50:20;38.15;;;18.25;;
54464;SDS011;40374;49.480;20.016;2023-07-22T19:52:49;28.13;;;15.30;;
54464;SDS011;40374;49.480;20.016;2023-07-22T19:55:17;30.23;;;15.38;;
54464;SDS011;40374;49.480;20.016;2023-07-22T19:57:44;29.67;;;15.65;;
54464;SDS011;40374;49.480;20.016;2023-07-22T20:00:12;26.30;;;15.05;;
54464;SDS011;40374;49.480;20.016;2023-07-22T20:02:39;24.85;;;14.82;;
54464;SDS011;40374;49.480;20.016;2023-07-22T20:05:07;26.55;;;14.75;;
54464;SDS011;40374;49.480;20.016;2023-07-22T20:07:37;27.92;;;15.65;;
54464;SDS011;40374;49.480;20.016;2023-07-22T20:10:04;73.70;;;38.08;;
54464;SDS011;40374;49.480;20.016;2023-07-22T20:12:32;31.70;;;18.40;;
54464;SDS011;40374;49.480;20.016;2023-07-22T20:15:00;33.45;;;19.33;;
54464;SDS011;40374;49.480;20.016;2023-07-22T20:17:28;38.10;;;19.23;;
54464;SDS011;40374;49.480;20.016;2023-07-22T20:19:55;32.20;;;17.42;;
54464;SDS011;40374;49.480;20.016;2023-07-22T20:22:23;30.30;;;17.55;;
54464;SDS011;40374;49.480;20.016;2023-07-22T20:24:50;38.42;;;18.77;;
54464;SDS011;40374;49.480;20.016;2023-07-22T20:27:18;31.90;;;19.23;;
54464;SDS011;40374;49.480;20.016;2023-07-22T20:29:45;38.00;;;20.23;;
54464;SDS011;40374;49.480;20.016;2023-07-22T20:32:12;36.90;;;19.35;;
54464;SDS011;40374;49.480;20.016;2023-07-22T20:34:55;38.03;;;16.33;;
54464;SDS011;40374;49.480;20.016;2023-07-22T20:37:24;26.05;;;15.63;;
54464;SDS011;40374;49.480;20.016;2023-07-22T20:39:52;28.38;;;16.00;;
54464;SDS011;40374;49.480;20.016;2023-07-22T20:42:19;27.58;;;16.48;;
54464;SDS011;40374;49.480;20.016;2023-07-22T20:44:47;28.58;;;16.85;;
54464;SDS011;40374;49.480;20.016;2023-07-22T20:47:14;29.15;;;16.98;;
54464;SDS011;40374;49.480;20.016;2023-07-22T20:49:42;33.22;;;17.80;;
54464;SDS011;40374;49.480;20.016;2023-07-22T20:52:10;34.95;;;18.60;;
54464;SDS011;40374;49.480;20.016;2023-07-22T20:54:37;28.05;;;17.88;;
54464;SDS011;40374;49.480;20.016;2023-07-22T20:57:04;30.48;;;17.55;;
54464;SDS011;40374;49.480;20.016;2023-07-22T20:59:32;36.03;;;20.55;;
54464;SDS011;40374;49.480;20.016;2023-07-22T21:01:59;36.45;;;19.05;;
54464;SDS011;40374;49.480;20.016;2023-07-22T21:04:31;27.40;;;17.77;;
54464;SDS011;40374;49.480;20.016;2023-07-22T21:06:58;26.27;;;17.00;;
54464;SDS011;40374;49.480;20.016;2023-07-22T21:09:28;36.45;;;15.98;;
54464;SDS011;40374;49.480;20.016;2023-07-22T21:11:56;28.58;;;17.27;;
54464;SDS011;40374;49.480;20.016;2023-07-22T21:14:25;28.13;;;17.60;;
54464;SDS011;40374;49.480;20.016;2023-07-22T21:16:52;32.97;;;18.05;;
54464;SDS011;40374;49.480;20.016;2023-07-22T21:19:20;35.63;;;20.45;;
54464;SDS011;40374;49.480;20.016;2023-07-22T21:21:49;33.40;;;19.75;;
54464;SDS011;40374;49.480;20.016;2023-07-22T21:24:17;48.70;;;21.00;;
54464;SDS011;40374;49.480;20.016;2023-07-22T21:26:44;41.67;;;24.77;;
54464;SDS011;40374;49.480;20.016;2023-07-22T21:29:12;33.67;;;19.90;;
54464;SDS011;40374;49.480;20.016;2023-07-22T23:27:34;20.13;;;11.55;;
54464;SDS011;40374;49.480;20.016;2023-07-22T23:30:03;26.77;;;15.63;;
54464;SDS011;40374;49.480;20.016;2023-07-22T23:32:32;28.27;;;16.33;;
54464;SDS011;40374;49.480;20.016;2023-07-22T23:35:01;33.08;;;18.23;;
54464;SDS011;40374;49.480;20.016;2023-07-22T23:37:29;35.20;;;18.90;;
54464;SDS011;40374;49.480;20.016;2023-07-22T23:39:58;27.90;;;15.25;;
54464;SDS011;40374;49.480;20.016;2023-07-22T23:43:24;23.80;;;12.98;;
54464;SDS011;40374;49.480;20.016;2023-07-22T23:46:30;18.90;;;13.38;;
54464;SDS011;40374;49.480;20.016;2023-07-22T23:49:52;26.42;;;14.25;;
54464;SDS011;40374;49.480;20.016;2023-07-22T23:52:20;28.15;;;14.85;;
54464;SDS011;40374;49.480;20.016;2023-07-22T23:54:47;28.77;;;16.20;;
54464;SDS011;40374;49.480;20.016;2023-07-22T23:57:15;26.23;;;15.93;;
54464;SDS011;40374;49.480;20.016;2023-07-22T23:59:42;30.45;;;16.95;;
